Time;durP1;ratioP1;P1;durP2;ratioP2;P2;SDS_P1;SDS_P2;PMS_P1;PMS_P2;Temp;Humidity;BMP_temperature;BMP_pressure;BME280_temperature;BME280_humidity;BME280_pressure;Samples;Min_cycle;Max_cycle;Signal;HPM_P1;HPM_P2
2024/04/04 00:00:06;;;;;;;15.38;4.25;;;11.40;99.90;;;;;;5045925;28;20119;-62
2024/04/04 00:02:32;;;;;;;28.42;4.57;;;11.40;99.90;;;;;;5040731;28;20052;-62
2024/04/04 00:04:59;;;;;;;21.77;3.78;;;11.40;99.90;;;;;;5041274;28;20091;-62
2024/04/04 00:07:25;;;;;;;20.38;4.38;;;11.40;99.90;;;;;;5041644;28;20507;-62
2024/04/04 00:09:51;;;;;;;24.92;4.85;;;11.40;99.90;;;;;;5040406;28;20045;-62
2024/04/04 00:12:19;;;;;;;23.40;4.53;;;11.40;99.90;;;;;;5056697;28;20519;-62
2024/04/04 00:14:48;;;;;;;16.25;4.50;;;11.30;99.90;;;;;;5041684;28;20076;-61
2024/04/04 00:17:14;;;;;;;21.00;4.50;;;11.30;99.90;;;;;;5038971;28;20198;-62
2024/04/04 00:19:40;;;;;;;22.40;4.40;;;11.30;99.90;;;;;;5037542;28;20053;-62
2024/04/04 00:22:06;;;;;;;17.52;4.35;;;11.30;99.90;;;;;;5041306;28;20045;-62
2024/04/04 00:24:32;;;;;;;16.70;4.15;;;11.30;99.90;;;;;;5046563;28;20389;-62
2024/04/04 00:26:58;;;;;;;27.52;4.55;;;11.30;99.90;;;;;;5037225;28;20488;-62
2024/04/04 00:29:24;;;;;;;25.08;4.35;;;11.30;99.90;;;;;;5042249;28;20052;-62
2024/04/04 00:31:50;;;;;;;22.77;3.97;;;11.30;99.90;;;;;;5050064;28;20040;-62
2024/04/04 00:34:16;;;;;;;22.85;4.40;;;11.30;99.90;;;;;;5041559;28;20079;-62
2024/04/04 00:36:41;;;;;;;20.15;4.78;;;11.30;99.90;;;;;;5040090;28;20033;-62
2024/04/04 00:39:08;;;;;;;25.92;5.45;;;11.40;99.90;;;;;;5044010;28;20041;-62
2024/04/04 00:41:33;;;;;;;26.40;5.05;;;11.40;99.90;;;;;;5042665;28;20113;-62
2024/04/04 00:43:59;;;;;;;30.20;5.57;;;11.40;99.90;;;;;;5056159;28;20032;-60
2024/04/04 00:46:25;;;;;;;23.70;4.90;;;11.40;99.90;;;;;;5043504;28;20111;-62
2024/04/04 00:48:52;;;;;;;17.52;4.00;;;11.40;99.90;;;;;;5050833;28;20112;-61
2024/04/04 00:51:19;;;;;;;19.00;3.97;;;11.30;99.90;;;;;;5038649;28;20045;-62
2024/04/04 00:53:46;;;;;;;21.42;5.00;;;11.30;99.90;;;;;;5040858;28;20331;-62
2024/04/04 00:56:12;;;;;;;26.30;4.43;;;11.30;99.90;;;;;;5041404;28;20052;-62
2024/04/04 00:58:39;;;;;;;21.80;4.43;;;11.30;99.90;;;;;;5034966;28;20033;-62
2024/04/04 01:01:05;;;;;;;25.10;4.38;;;11.30;99.90;;;;;;5038447;28;20048;-62
2024/04/04 01:03:31;;;;;;;22.98;4.88;;;11.30;99.90;;;;;;5034725;28;20041;-62
2024/04/04 01:05:56;;;;;;;23.33;5.03;;;11.30;99.90;;;;;;5038952;28;20672;-62
2024/04/04 01:08:23;;;;;;;20.63;3.97;;;11.30;99.90;;;;;;5045232;28;20140;-62
2024/04/04 01:10:48;;;;;;;20.48;4.70;;;11.30;99.90;;;;;;5042004;28;20499;-62
2024/04/04 01:13:15;;;;;;;20.15;4.30;;;11.30;99.90;;;;;;5039375;28;20122;-62
2024/04/04 01:15:42;;;;;;;20.27;4.38;;;11.30;99.90;;;;;;5038962;28;20047;-62
2024/04/04 01:18:07;;;;;;;24.58;4.60;;;11.20;99.90;;;;;;5037659;28;20496;-62
2024/04/04 01:20:33;;;;;;;31.08;5.30;;;11.20;99.90;;;;;;5044406;28;20254;-62
2024/04/04 01:22:59;;;;;;;22.33;3.45;;;11.20;99.90;;;;;;5043093;28;20302;-62
2024/04/04 01:25:25;;;;;;;16.67;3.92;;;11.20;99.90;;;;;;5040643;28;20037;-62
2024/04/04 01:27:51;;;;;;;24.02;3.92;;;11.20;99.90;;;;;;5037520;28;20045;-62
2024/04/04 01:30:17;;;;;;;18.70;3.90;;;11.20;99.90;;;;;;5037440;28;20041;-61
2024/04/04 01:32:43;;;;;;;24.27;4.97;;;11.10;99.90;;;;;;5035261;28;20481;-62
2024/04/04 01:35:08;;;;;;;26.10;3.92;;;11.10;99.90;;;;;;5043628;28;20037;-61
2024/04/04 01:37:35;;;;;;;20.80;4.30;;;11.10;99.90;;;;;;5046676;28;20044;-63
2024/04/04 01:40:01;;;;;;;23.42;4.53;;;11.10;99.90;;;;;;5049112;28;20098;-63
2024/04/04 01:42:27;;;;;;;24.98;4.68;;;11.10;99.90;;;;;;5047581;28;20442;-62
2024/04/04 01:44:52;;;;;;;23.70;4.68;;;11.10;99.90;;;;;;5062850;28;20087;-63
2024/04/04 01:47:18;;;;;;;27.52;4.38;;;11.10;99.90;;;;;;5043462;28;20151;-62
2024/04/04 01:49:44;;;;;;;26.75;4.78;;;11.10;99.90;;;;;;5049006;28;20051;-62
2024/04/04 01:52:10;;;;;;;20.35;3.58;;;11.10;99.90;;;;;;5043593;28;20060;-62
2024/04/04 01:54:35;;;;;;;20.58;4.40;;;11.10;99.90;;;;;;5045785;28;20047;-62
2024/04/04 01:57:01;;;;;;;21.63;4.00;;;11.10;99.90;;;;;;5037399;28;20048;-63
2024/04/04 01:59:27;;;;;;;32.65;6.75;;;11.10;99.90;;;;;;5044959;28;20575;-62
2024/04/04 02:01:52;;;;;;;19.52;3.90;;;11.00;99.90;;;;;;5040277;28;20049;-62
2024/04/04 02:04:18;;;;;;;20.63;3.80;;;11.00;99.90;;;;;;5045970;28;20037;-62
2024/04/04 02:06:44;;;;;;;20.20;3.72;;;11.00;99.90;;;;;;5042306;28;20055;-62
2024/04/04 02:09:10;;;;;;;19.50;3.65;;;11.00;99.90;;;;;;5047736;28;20057;-62
2024/04/04 02:11:36;;;;;;;19.30;3.53;;;11.00;99.90;;;;;;5047412;28;20113;-62
2024/04/04 02:14:01;;;;;;;17.70;3.65;;;11.00;99.90;;;;;;5051080;28;20048;-62
2024/04/04 02:16:29;;;;;;;21.35;3.70;;;11.00;99.90;;;;;;5047964;28;20040;-62
2024/04/04 02:18:55;;;;;;;25.35;4.85;;;11.00;99.90;;;;;;5082985;28;20044;-62
2024/04/04 02:21:21;;;;;;;22.38;4.38;;;10.90;99.90;;;;;;5047155;28;20037;-63
2024/04/04 02:23:48;;;;;;;27.50;4.40;;;10.90;99.90;;;;;;5051935;28;20115;-61
2024/04/04 02:26:14;;;;;;;22.20;4.95;;;11.00;99.90;;;;;;5047708;28;20048;-62
2024/04/04 02:28:39;;;;;;;27.05;4.57;;;11.00;99.90;;;;;;5050320;28;20041;-61
2024/04/04 02:31:05;;;;;;;25.73;3.92;;;10.90;99.90;;;;;;5049112;28;20040;-62
2024/04/04 02:33:31;;;;;;;25.75;4.10;;;10.90;99.90;;;;;;5049555;28;20052;-60
2024/04/04 02:35:58;;;;;;;20.00;3.65;;;10.90;99.90;;;;;;5052644;28;20032;-62
2024/04/04 02:38:25;;;;;;;27.45;3.95;;;10.80;99.90;;;;;;5049064;28;20040;-62
2024/04/04 02:40:50;;;;;;;25.23;4.30;;;10.80;99.90;;;;;;5054479;28;20056;-62
2024/04/04 02:43:16;;;;;;;21.63;4.00;;;10.70;99.90;;;;;;5048288;28;20041;-62
2024/04/04 02:45:46;;;;;;;19.08;3.47;;;10.70;99.90;;;;;;5054191;28;20047;-62
2024/04/04 02:48:12;;;;;;;17.08;3.80;;;10.60;99.90;;;;;;5045231;28;20041;-62
2024/04/04 02:50:38;;;;;;;18.35;4.18;;;10.60;99.90;;;;;;5042461;28;20139;-62
2024/04/04 02:53:04;;;;;;;18.45;3.65;;;10.50;99.90;;;;;;5039675;28;20033;-62
2024/04/04 02:55:33;;;;;;;16.40;3.50;;;10.50;99.90;;;;;;5039401;28;20508;-62
2024/04/04 02:57:59;;;;;;;18.25;3.05;;;10.40;99.90;;;;;;5044030;28;20496;-62
2024/04/04 03:00:24;;;;;;;18.88;3.58;;;10.40;99.90;;;;;;5043249;28;20041;-61
2024/04/04 03:02:50;;;;;;;14.30;3.28;;;10.30;99.90;;;;;;5034292;28;20049;-61
2024/04/04 03:05:16;;;;;;;20.35;3.58;;;10.30;99.90;;;;;;5042218;28;20041;-61
2024/04/04 03:07:42;;;;;;;23.35;3.35;;;10.20;99.90;;;;;;5046246;28;20037;-61
2024/04/04 03:10:08;;;;;;;14.13;2.63;;;10.20;99.90;;;;;;5048735;28;20115;-62
2024/04/04 03:12:33;;;;;;;18.92;3.00;;;10.10;99.90;;;;;;5043725;28;20045;-62
2024/04/04 03:14:59;;;;;;;18.17;4.05;;;10.10;99.90;;;;;;5035060;28;20133;-61
2024/04/04 03:17:27;;;;;;;15.57;3.00;;;10.10;99.90;;;;;;5044183;28;20037;-62
2024/04/04 03:19:53;;;;;;;15.65;2.58;;;10.00;99.90;;;;;;5040698;28;20086;-61
2024/04/04 03:22:18;;;;;;;17.13;3.42;;;9.90;99.90;;;;;;5042648;28;20078;-62
2024/04/04 03:24:44;;;;;;;20.20;4.05;;;9.90;99.90;;;;;;5046104;28;20325;-61
2024/04/04 03:27:10;;;;;;;21.30;3.20;;;9.80;99.90;;;;;;5044875;28;20466;-62
2024/04/04 03:29:36;;;;;;;20.08;2.83;;;9.80;99.90;;;;;;5044436;28;20045;-62
2024/04/04 03:32:03;;;;;;;15.20;3.05;;;9.80;99.90;;;;;;5035697;28;20076;-61
2024/04/04 03:34:28;;;;;;;16.05;2.88;;;9.70;99.90;;;;;;5041737;28;20108;-62
2024/04/04 03:36:54;;;;;;;19.63;3.83;;;9.80;99.90;;;;;;5035393;28;20387;-62
2024/04/04 03:39:21;;;;;;;16.95;3.08;;;9.70;99.90;;;;;;5033605;28;20044;-62
2024/04/04 03:41:46;;;;;;;16.40;2.90;;;9.70;99.90;;;;;;5042998;28;20045;-62
2024/04/04 03:44:12;;;;;;;18.05;2.80;;;9.70;99.90;;;;;;5044501;28;20037;-61
2024/04/04 03:46:38;;;;;;;16.05;2.72;;;9.60;99.90;;;;;;5042995;28;20156;-62
2024/04/04 03:49:04;;;;;;;14.45;2.47;;;9.70;99.90;;;;;;5042651;28;20222;-62
2024/04/04 03:51:30;;;;;;;14.30;2.40;;;9.60;99.90;;;;;;5041295;28;20036;-65
2024/04/04 03:53:56;;;;;;;10.52;2.53;;;9.60;99.90;;;;;;5039080;28;20407;-62
2024/04/04 03:56:21;;;;;;;18.20;2.50;;;9.60;99.90;;;;;;5044768;28;20041;-61
2024/04/04 03:58:47;;;;;;;18.10;2.65;;;9.60;99.90;;;;;;5040270;28;20270;-64
2024/04/04 04:01:13;;;;;;;12.25;2.63;;;9.50;99.90;;;;;;5042368;28;20041;-62
2024/04/04 04:03:39;;;;;;;15.95;3.03;;;9.50;99.90;;;;;;5032508;28;20045;-62
2024/04/04 04:06:05;;;;;;;11.27;2.25;;;9.50;99.90;;;;;;5042191;28;20076;-62
2024/04/04 04:08:30;;;;;;;11.57;2.40;;;9.50;99.90;;;;;;5047109;28;20477;-62
2024/04/04 04:10:56;;;;;;;20.38;3.45;;;9.50;99.90;;;;;;5049605;28;20037;-62
2024/04/04 04:13:22;;;;;;;16.90;3.60;;;9.50;99.90;;;;;;5033099;28;20041;-61
2024/04/04 04:15:56;;;;;;;10.35;2.28;;;9.50;99.90;;;;;;5043709;28;20180;-61
2024/04/04 04:18:21;;;;;;;11.73;2.65;;;9.60;99.90;;;;;;5036251;28;20433;-61
2024/04/04 04:23:31;;;;;;;10.73;2.13;;;9.60;99.90;;;;;;5040481;28;20044;-62
2024/04/04 04:25:57;;;;;;;13.13;2.30;;;9.60;99.90;;;;;;5040745;28;20126;-62
2024/04/04 04:28:23;;;;;;;10.75;2.20;;;9.60;99.90;;;;;;5042846;28;20045;-62
2024/04/04 04:30:51;;;;;;;14.18;2.60;;;9.60;99.90;;;;;;5032662;28;20421;-62
2024/04/04 04:33:17;;;;;;;14.68;2.13;;;9.60;99.90;;;;;;5045611;28;20049;-62
2024/04/04 04:35:43;;;;;;;9.48;2.05;;;9.60;99.90;;;;;;5041463;28;20048;-62
2024/04/04 04:38:08;;;;;;;8.27;2.33;;;9.60;99.90;;;;;;5037941;28;20037;-64
2024/04/04 04:40:34;;;;;;;11.32;2.50;;;9.60;99.90;;;;;;5041792;28;20041;-62
2024/04/04 04:43:00;;;;;;;12.93;2.25;;;9.60;99.90;;;;;;5050032;28;20436;-61
2024/04/04 04:45:26;;;;;;;8.80;2.42;;;9.70;99.90;;;;;;5049933;28;20033;-61
2024/04/04 04:47:53;;;;;;;10.85;2.03;;;9.60;99.90;;;;;;5043048;28;20049;-61
2024/04/04 04:50:18;;;;;;;11.23;2.58;;;9.70;99.90;;;;;;5038566;28;20074;-62
2024/04/04 04:52:44;;;;;;;10.50;2.35;;;9.60;99.90;;;;;;5043301;28;20052;-62
2024/04/04 04:55:10;;;;;;;8.20;2.05;;;9.70;99.90;;;;;;5042891;28;20127;-62
2024/04/04 04:57:36;;;;;;;9.02;2.20;;;9.60;99.90;;;;;;5036374;28;20037;-62
2024/04/04 05:00:02;;;;;;;10.32;2.38;;;9.60;99.90;;;;;;5039196;28;20089;-62
2024/04/04 05:02:31;;;;;;;11.20;2.42;;;9.60;99.90;;;;;;5038366;28;20471;-62
2024/04/04 05:04:56;;;;;;;8.82;2.00;;;9.60;99.90;;;;;;5038510;28;20036;-62
2024/04/04 05:07:22;;;;;;;9.35;2.08;;;9.60;99.90;;;;;;5052071;28;20415;-62
2024/04/04 05:09:48;;;;;;;9.63;2.13;;;9.60;99.90;;;;;;5034498;28;20049;-61
2024/04/04 05:12:13;;;;;;;6.90;2.05;;;9.60;99.90;;;;;;5039322;28;20041;-62
2024/04/04 05:14:39;;;;;;;6.75;2.22;;;9.60;99.90;;;;;;5036444;28;20037;-62
2024/04/04 05:17:05;;;;;;;8.85;2.17;;;9.60;99.90;;;;;;5036648;28;20122;-62
2024/04/04 05:19:30;;;;;;;6.72;1.90;;;9.60;99.90;;;;;;5037227;28;20118;-62
2024/04/04 05:21:56;;;;;;;9.88;1.95;;;9.90;99.90;;;;;;5036120;28;20047;-62
2024/04/04 05:24:22;;;;;;;7.00;1.70;;;9.60;99.90;;;;;;5036120;28;20037;-62
2024/04/04 05:26:47;;;;;;;8.60;2.53;;;9.70;99.90;;;;;;5038505;28;20033;-62
2024/04/04 05:29:14;;;;;;;7.45;2.20;;;9.70;99.90;;;;;;5036419;28;20045;-62
2024/04/04 05:31:42;;;;;;;6.63;1.70;;;9.60;99.90;;;;;;5036252;28;20568;-61
2024/04/04 05:34:08;;;;;;;8.63;1.47;;;9.70;99.90;;;;;;5038196;28;20184;-62
2024/04/04 05:36:33;;;;;;;6.35;1.70;;;9.70;99.90;;;;;;5037001;28;20037;-62
2024/04/04 05:38:59;;;;;;;9.77;1.70;;;9.60;99.90;;;;;;5038362;28;20036;-62
2024/04/04 05:41:25;;;;;;;10.13;1.48;;;9.70;99.90;;;;;;5038088;28;20465;-62
2024/04/04 05:43:51;;;;;;;9.48;1.83;;;9.70;99.90;;;;;;5037590;28;20037;-61
2024/04/04 05:46:16;;;;;;;5.63;1.67;;;9.70;99.90;;;;;;5037128;28;20041;-62
2024/04/04 05:48:42;;;;;;;7.28;1.70;;;9.70;99.90;;;;;;5038257;28;20033;-62
2024/04/04 05:51:08;;;;;;;5.55;1.40;;;9.70;99.90;;;;;;5034800;28;20045;-62
2024/04/04 05:53:33;;;;;;;13.18;1.70;;;9.70;99.90;;;;;;5036595;28;20154;-62
2024/04/04 05:55:59;;;;;;;6.35;2.25;;;9.70;99.90;;;;;;5036340;28;20387;-62
2024/04/04 05:58:25;;;;;;;8.50;1.92;;;9.80;99.90;;;;;;5036567;28;20052;-62
2024/04/04 06:00:51;;;;;;;6.95;1.27;;;9.80;99.90;;;;;;5033938;28;20083;-62
2024/04/04 06:03:17;;;;;;;8.10;1.67;;;9.80;99.90;;;;;;5036396;28;20047;-62
2024/04/04 06:05:43;;;;;;;9.30;1.88;;;9.80;99.90;;;;;;5069362;28;20646;-62
2024/04/04 06:08:10;;;;;;;4.93;1.90;;;9.80;99.90;;;;;;5036321;28;20045;-62
2024/04/04 06:10:36;;;;;;;6.85;1.83;;;9.90;99.90;;;;;;5037331;28;20155;-62
2024/04/04 06:13:03;;;;;;;7.68;1.67;;;9.90;99.90;;;;;;5038420;28;20041;-62
2024/04/04 06:15:28;;;;;;;6.30;1.52;;;9.80;99.90;;;;;;5035400;28;20484;-62
2024/04/04 06:17:54;;;;;;;7.03;1.80;;;9.90;99.90;;;;;;5035129;28;20041;-62
2024/04/04 06:20:20;;;;;;;7.57;2.10;;;9.90;99.90;;;;;;5031659;28;20666;-61
2024/04/04 06:22:46;;;;;;;15.30;2.20;;;9.90;99.90;;;;;;5038200;28;20052;-62
2024/04/04 06:25:11;;;;;;;10.52;1.98;;;9.90;99.90;;;;;;5041389;28;20056;-62
2024/04/04 06:27:37;;;;;;;7.93;2.10;;;10.00;99.90;;;;;;5040499;28;20045;-62
2024/04/04 06:30:03;;;;;;;5.95;1.65;;;9.90;99.90;;;;;;5040291;28;20060;-62
2024/04/04 06:32:29;;;;;;;12.13;2.40;;;10.00;99.90;;;;;;5037605;28;20098;-62
2024/04/04 06:34:55;;;;;;;6.03;1.98;;;10.00;99.90;;;;;;5037050;28;20637;-62
2024/04/04 06:37:20;;;;;;;4.47;2.28;;;10.10;99.90;;;;;;5041017;28;20431;-62
2024/04/04 06:39:46;;;;;;;8.05;2.50;;;10.00;99.90;;;;;;5037946;28;20037;-62
2024/04/04 06:42:12;;;;;;;7.05;2.38;;;10.10;99.90;;;;;;5038708;28;20037;-62
2024/04/04 06:44:38;;;;;;;5.28;2.70;;;10.00;99.90;;;;;;5039268;28;20073;-62
2024/04/04 06:47:04;;;;;;;6.63;2.92;;;10.00;99.90;;;;;;5041064;28;20048;-62
2024/04/04 06:49:30;;;;;;;7.70;2.83;;;10.00;99.90;;;;;;5036125;28;20036;-62
2024/04/04 06:51:56;;;;;;;9.95;2.95;;;10.10;99.90;;;;;;5054286;28;20406;-62
2024/04/04 06:54:22;;;;;;;11.57;3.13;;;10.10;99.90;;;;;;5039000;28;20115;-62
2024/04/04 06:56:48;;;;;;;10.27;3.13;;;10.10;99.90;;;;;;5031875;28;20037;-62
2024/04/04 06:59:13;;;;;;;5.50;2.92;;;10.00;99.90;;;;;;5055766;28;20048;-61
2024/04/04 07:01:39;;;;;;;8.40;3.05;;;10.00;99.90;;;;;;5039047;28;20092;-62
2024/04/04 07:04:07;;;;;;;11.68;3.65;;;10.10;99.90;;;;;;5040364;28;20589;-62
2024/04/04 07:06:34;;;;;;;6.53;3.45;;;10.10;99.90;;;;;;5039396;28;20455;-62
2024/04/04 07:08:59;;;;;;;8.60;3.45;;;10.00;99.90;;;;;;5040508;28;20123;-62
2024/04/04 07:11:26;;;;;;;9.38;3.78;;;10.10;99.90;;;;;;5040481;28;20055;-62
2024/04/04 07:13:52;;;;;;;5.15;3.30;;;10.00;99.90;;;;;;5042802;28;20052;-62
2024/04/04 07:16:18;;;;;;;10.02;3.60;;;10.00;99.90;;;;;;5040566;28;20451;-62
2024/04/04 07:18:44;;;;;;;9.75;3.85;;;10.00;99.90;;;;;;5041402;28;20051;-62
2024/04/04 07:21:10;;;;;;;7.63;3.35;;;10.10;99.90;;;;;;5040854;28;20048;-62
2024/04/04 07:23:36;;;;;;;7.18;3.47;;;10.00;99.90;;;;;;5042217;28;20048;-61
2024/04/04 07:26:02;;;;;;;6.40;3.60;;;10.00;99.90;;;;;;5040636;28;20102;-62
2024/04/04 07:28:28;;;;;;;7.70;3.78;;;10.10;99.90;;;;;;5039050;28;20051;-62
2024/04/04 07:30:54;;;;;;;7.55;3.80;;;10.10;99.90;;;;;;5038657;28;20408;-62
2024/04/04 07:33:19;;;;;;;6.05;3.60;;;10.10;99.90;;;;;;5038688;28;20032;-62
2024/04/04 07:35:45;;;;;;;5.75;3.75;;;10.20;99.90;;;;;;5040862;28;20082;-62
2024/04/04 07:38:13;;;;;;;6.82;3.83;;;10.10;99.90;;;;;;5039122;28;20047;-62
2024/04/04 07:40:40;;;;;;;8.32;4.18;;;10.20;99.90;;;;;;5038135;28;20141;-63
2024/04/04 07:43:06;;;;;;;8.13;3.60;;;10.30;99.90;;;;;;5039095;28;20052;-62
2024/04/04 07:45:39;;;;;;;8.95;3.95;;;10.30;99.90;;;;;;5039072;28;20616;-62
2024/04/04 07:48:08;;;;;;;6.50;3.80;;;10.50;99.90;;;;;;5039722;28;20051;-62
2024/04/04 07:50:34;;;;;;;7.35;3.80;;;10.50;99.90;;;;;;5037817;28;20056;-62
2024/04/04 07:53:00;;;;;;;8.25;3.45;;;10.40;99.90;;;;;;5038808;28;20045;-62
2024/04/04 07:55:26;;;;;;;6.72;3.47;;;10.40;99.90;;;;;;5038933;28;20153;-61
2024/04/04 07:57:51;;;;;;;5.18;3.55;;;10.40;99.90;;;;;;5037244;28;20112;-62
2024/04/04 08:00:18;;;;;;;7.00;3.28;;;10.40;99.90;;;;;;5053487;28;20418;-62
2024/04/04 08:02:45;;;;;;;6.63;3.60;;;10.50;99.90;;;;;;5037589;28;20142;-62
2024/04/04 08:05:11;;;;;;;5.65;3.90;;;10.60;99.90;;;;;;5039050;28;20052;-62
2024/04/04 08:07:36;;;;;;;6.22;4.25;;;10.60;99.90;;;;;;5039608;28;20045;-63
2024/04/04 08:10:13;;;;;;;6.60;3.92;;;10.60;99.90;;;;;;5039231;28;20048;-62
2024/04/04 08:12:39;;;;;;;8.63;4.30;;;10.60;99.90;;;;;;5038219;28;20044;-61
2024/04/04 08:15:12;;;;;;;7.82;4.35;;;10.50;99.90;;;;;;5036134;28;20511;-62
2024/04/04 08:17:47;;;;;;;7.57;4.38;;;10.60;99.90;;;;;;5039184;28;20100;-62
2024/04/04 08:20:16;;;;;;;7.03;4.65;;;10.70;99.90;;;;;;5037679;28;20316;-62
2024/04/04 08:22:42;;;;;;;;;;;10.70;99.90;;;;;;5038740;28;20108;-61
2024/04/04 08:25:08;;;;;;;6.05;4.30;;;10.70;99.90;;;;;;5037106;28;20679;-62
2024/04/04 08:27:34;;;;;;;7.35;4.55;;;10.80;99.90;;;;;;5036838;28;20041;-62
2024/04/04 08:30:00;;;;;;;9.50;5.18;;;10.80;99.90;;;;;;5036582;28;20044;-62
2024/04/04 08:32:26;;;;;;;7.68;4.60;;;10.80;99.90;;;;;;5037641;28;20099;-62
2024/04/04 08:34:52;;;;;;;6.47;4.35;;;10.80;99.90;;;;;;5038011;28;20328;-61
2024/04/04 08:37:18;;;;;;;5.55;4.40;;;10.90;99.90;;;;;;5037766;28;20541;-61
2024/04/04 08:39:43;;;;;;;8.32;5.13;;;10.80;99.90;;;;;;5038488;28;20131;-62
2024/04/04 08:42:09;;;;;;;5.82;4.63;;;10.90;99.90;;;;;;5038676;28;20041;-61
2024/04/04 08:44:35;;;;;;;6.20;4.53;;;10.90;99.90;;;;;;5036372;28;20048;-62
2024/04/04 08:47:02;;;;;;;5.18;4.32;;;11.10;99.90;;;;;;5038742;28;20041;-62
2024/04/04 08:49:29;;;;;;;6.97;4.40;;;11.10;99.90;;;;;;5037431;28;20138;-62
2024/04/04 08:51:59;;;;;;;6.55;4.22;;;11.00;99.90;;;;;;5036377;28;20095;-62
2024/04/04 08:54:26;;;;;;;5.90;4.07;;;11.10;99.90;;;;;;5036918;28;20499;-61
2024/04/04 08:56:53;;;;;;;5.45;4.32;;;11.20;99.90;;;;;;5037303;28;20559;-62
2024/04/04 08:59:21;;;;;;;4.93;3.78;;;11.20;99.90;;;;;;5040422;28;20520;-62
2024/04/04 09:01:47;;;;;;;5.43;4.07;;;11.20;99.90;;;;;;5038547;28;20094;-62
2024/04/04 09:04:23;;;;;;;6.20;4.20;;;11.50;99.90;;;;;;5038833;28;20052;-63
2024/04/04 09:06:50;;;;;;;4.75;3.47;;;11.20;99.90;;;;;;5037613;28;20492;-62
2024/04/04 09:09:16;;;;;;;6.25;3.58;;;11.20;99.90;;;;;;5038408;28;20920;-62
2024/04/04 09:11:41;;;;;;;5.15;4.10;;;11.40;99.90;;;;;;5038315;28;20040;-62
2024/04/04 09:14:09;;;;;;;5.10;3.78;;;11.40;99.90;;;;;;5038445;28;20389;-62
2024/04/04 09:16:39;;;;;;;7.00;3.58;;;11.50;99.90;;;;;;5037995;28;20048;-62
2024/04/04 09:19:14;;;;;;;7.35;4.18;;;11.40;99.90;;;;;;5036492;28;20048;-62
2024/04/04 09:21:40;;;;;;;4.05;3.58;;;11.50;99.90;;;;;;5037252;28;20509;-61
2024/04/04 09:24:10;;;;;;;4.45;3.58;;;11.50;99.90;;;;;;5037281;28;20045;-61
2024/04/04 09:26:37;;;;;;;5.10;3.75;;;11.50;99.90;;;;;;5039002;28;20590;-61
2024/04/04 09:29:04;;;;;;;4.95;4.00;;;11.60;99.90;;;;;;5035922;28;20098;-62
2024/04/04 09:31:36;;;;;;;4.85;4.25;;;11.70;99.90;;;;;;5037677;28;20106;-62
2024/04/04 09:34:03;;;;;;;5.53;4.20;;;11.70;99.90;;;;;;5036641;28;20033;-62
2024/04/04 09:36:31;;;;;;;4.63;4.20;;;11.80;99.90;;;;;;5037380;28;20540;-62
2024/04/04 09:38:58;;;;;;;4.93;4.25;;;11.80;99.90;;;;;;5035391;28;20075;-62
2024/04/04 09:41:23;;;;;;;5.15;4.07;;;11.90;99.90;;;;;;5037487;28;20123;-62
2024/04/04 09:43:50;;;;;;;8.32;4.53;;;11.90;99.90;;;;;;5037275;28;20571;-62
2024/04/04 09:46:17;;;;;;;7.03;4.47;;;11.90;99.90;;;;;;5038772;28;20095;-61
2024/04/04 09:48:47;;;;;;;7.95;4.70;;;11.90;99.90;;;;;;5036682;28;20041;-62
2024/04/04 09:51:14;;;;;;;6.47;4.18;;;11.90;99.90;;;;;;5034084;28;20040;-62
2024/04/04 09:53:41;;;;;;;8.15;4.50;;;12.00;99.90;;;;;;5036953;28;20095;-61
2024/04/04 09:56:08;;;;;;;7.18;4.70;;;12.00;99.90;;;;;;5037222;28;20092;-61
2024/04/04 09:58:34;;;;;;;5.28;4.75;;;12.00;99.90;;;;;;5040238;28;20470;-62
2024/04/04 10:01:22;;;;;;;6.57;4.68;;;12.00;99.90;;;;;;5041909;28;20080;-62
2024/04/04 10:04:00;;;;;;;4.72;4.00;;;12.10;99.90;;;;;;5040567;28;20187;-62
2024/04/04 10:06:33;;;;;;;6.30;3.58;;;12.20;99.90;;;;;;5039615;28;20496;-62
2024/04/04 10:08:59;;;;;;;7.50;4.55;;;12.20;99.90;;;;;;5039746;28;20043;-62
2024/04/04 10:11:29;;;;;;;6.68;4.18;;;12.10;99.90;;;;;;5041141;28;20044;-62
2024/04/04 10:14:00;;;;;;;9.13;4.60;;;12.30;99.90;;;;;;5039365;28;20047;-62
2024/04/04 10:16:33;;;;;;;7.95;4.65;;;12.10;99.90;;;;;;5041587;28;20098;-61
2024/04/04 10:19:12;;;;;;;8.23;4.47;;;12.10;99.90;;;;;;5038068;28;20178;-61
2024/04/04 10:21:39;;;;;;;7.10;4.63;;;12.10;99.90;;;;;;5043160;28;20043;-61
2024/04/04 10:24:06;;;;;;;10.32;4.85;;;12.10;99.90;;;;;;5041770;28;20079;-62
2024/04/04 10:26:32;;;;;;;6.65;4.57;;;12.10;99.90;;;;;;5040247;28;20041;-61
2024/04/04 10:28:58;;;;;;;10.30;5.45;;;12.10;99.90;;;;;;5040889;28;20041;-62
2024/04/04 10:31:25;;;;;;;7.38;4.82;;;12.20;99.90;;;;;;5041246;28;20488;-62
2024/04/04 10:34:04;;;;;;;7.13;4.13;;;12.10;99.90;;;;;;5039606;28;20151;-61
2024/04/04 10:36:38;;;;;;;10.77;4.80;;;12.30;99.90;;;;;;5039897;28;20045;-62
2024/04/04 10:39:09;;;;;;;6.68;4.03;;;12.30;99.90;;;;;;5040072;28;20056;-62
2024/04/04 10:41:37;;;;;;;8.98;4.50;;;12.30;99.90;;;;;;5039779;28;20112;-62
2024/04/04 10:44:15;;;;;;;6.17;3.50;;;12.50;99.90;;;;;;5038936;28;20053;-62
2024/04/04 10:46:47;;;;;;;6.22;3.47;;;12.40;99.90;;;;;;5038381;28;20040;-62
2024/04/04 10:49:15;;;;;;;4.07;3.00;;;12.40;99.90;;;;;;5040028;28;20056;-62
2024/04/04 10:51:55;;;;;;;7.10;3.03;;;12.50;99.90;;;;;;5042272;28;20037;-62
2024/04/04 10:54:22;;;;;;;6.75;3.28;;;12.60;99.90;;;;;;5041132;28;20091;-62
2024/04/04 10:56:48;;;;;;;7.43;2.65;;;12.70;99.90;;;;;;5040015;28;20041;-62
2024/04/04 10:59:18;;;;;;;5.82;2.30;;;12.70;99.90;;;;;;5038571;28;20272;-62
2024/04/04 11:01:51;;;;;;;6.13;2.85;;;12.70;99.90;;;;;;5041184;28;20045;-62
2024/04/04 11:04:20;;;;;;;6.65;3.35;;;12.70;99.90;;;;;;5038723;28;20565;-62
2024/04/04 11:06:48;;;;;;;4.88;2.30;;;12.70;99.90;;;;;;5037829;28;20049;-61
2024/04/04 11:09:15;;;;;;;9.13;2.50;;;12.70;99.90;;;;;;5041106;28;20047;-62
2024/04/04 11:11:46;;;;;;;8.65;3.20;;;12.70;99.90;;;;;;5040478;28;20041;-62
2024/04/04 11:14:13;;;;;;;7.53;2.80;;;12.50;99.90;;;;;;5037636;28;20036;-61
2024/04/04 11:16:43;;;;;;;7.40;3.00;;;12.70;99.90;;;;;;5039096;28;20071;-62
2024/04/04 11:19:12;;;;;;;10.40;3.55;;;12.60;99.90;;;;;;5039093;28;20128;-61
2024/04/04 11:21:38;;;;;;;16.17;3.72;;;12.60;99.90;;;;;;5038899;28;20055;-61
2024/04/04 11:24:05;;;;;;;12.52;3.92;;;12.80;99.90;;;;;;5039092;28;20109;-61
2024/04/04 11:26:31;;;;;;;16.30;4.97;;;12.90;99.90;;;;;;5040749;28;20051;-62
2024/04/04 11:29:00;;;;;;;13.38;4.05;;;13.40;99.90;;;;;;5037179;28;20391;-62
2024/04/04 11:31:29;;;;;;;15.43;3.53;;;13.70;99.90;;;;;;5039624;28;20586;-65
2024/04/04 11:33:55;;;;;;;;;;;13.70;99.90;;;;;;5043696;28;20039;-64
2024/04/04 11:36:21;;;;;;;13.10;3.67;;;14.00;99.90;;;;;;5039139;28;19959;-63
2024/04/04 11:38:47;;;;;;;14.27;3.38;;;14.00;99.90;;;;;;5040255;28;20037;-62
2024/04/04 11:41:13;;;;;;;17.42;4.22;;;14.20;99.90;;;;;;5039544;28;20048;-63
2024/04/04 11:43:39;;;;;;;11.63;2.72;;;14.10;99.90;;;;;;5040541;28;20045;-62
2024/04/04 11:46:12;;;;;;;8.27;3.00;;;14.40;99.90;;;;;;5043413;28;20111;-64
2024/04/04 11:48:38;;;;;;;21.42;3.70;;;14.70;99.90;;;;;;5039254;28;20044;-62
2024/04/04 11:51:04;;;;;;;14.02;2.70;;;15.00;99.90;;;;;;5040575;28;20551;-62
2024/04/04 11:53:30;;;;;;;15.48;3.53;;;15.30;99.90;;;;;;5037652;28;20044;-62
2024/04/04 11:55:56;;;;;;;15.63;3.55;;;15.20;99.90;;;;;;5038741;28;20037;-62
2024/04/04 11:58:27;;;;;;;17.67;4.30;;;15.00;99.90;;;;;;5039408;28;20043;-61
2024/04/04 12:00:53;;;;;;;15.45;2.47;;;14.70;99.90;;;;;;5038648;28;20538;-61
2024/04/04 12:03:19;;;;;;;14.20;2.53;;;14.60;99.90;;;;;;5039072;28;20040;-62
2024/04/04 12:05:45;;;;;;;8.55;1.73;;;14.60;99.90;;;;;;5038102;28;20076;-62
2024/04/04 12:08:11;;;;;;;10.90;1.95;;;14.70;99.90;;;;;;5039031;28;20389;-62
2024/04/04 12:10:37;;;;;;;11.38;2.60;;;14.80;99.90;;;;;;5037570;28;20036;-62
2024/04/04 12:13:03;;;;;;;11.35;1.95;;;15.00;99.90;;;;;;5038214;28;20131;-62
2024/04/04 12:15:30;;;;;;;11.75;1.77;;;14.90;99.90;;;;;;5037825;28;20052;-62
2024/04/04 12:20:41;;;;;;;14.90;2.63;;;14.70;99.90;;;;;;5039193;28;20152;-61
2024/04/04 12:23:07;;;;;;;12.43;2.28;;;14.70;99.90;;;;;;5038719;28;20128;-62
2024/04/04 12:25:33;;;;;;;9.20;2.30;;;14.60;99.90;;;;;;5039253;28;20137;-61
2024/04/04 12:27:59;;;;;;;16.02;2.83;;;14.50;99.90;;;;;;5039003;28;20036;-62
2024/04/04 12:30:25;;;;;;;11.93;2.75;;;14.40;99.90;;;;;;5037830;28;20135;-61
2024/04/04 12:32:51;;;;;;;15.10;2.75;;;14.40;99.90;;;;;;5037151;28;20404;-61
2024/04/04 12:35:17;;;;;;;18.33;3.15;;;14.30;99.90;;;;;;5037166;28;20041;-62
2024/04/04 12:37:42;;;;;;;12.70;2.75;;;14.30;99.90;;;;;;5037606;28;20098;-62
2024/04/04 12:40:09;;;;;;;18.52;2.83;;;14.50;99.90;;;;;;5040275;28;20033;-62
2024/04/04 12:42:34;;;;;;;17.52;2.85;;;14.50;99.90;;;;;;5037023;28;20468;-62
2024/04/04 12:45:00;;;;;;;15.25;3.22;;;14.60;99.90;;;;;;5040998;28;20037;-62
2024/04/04 12:47:26;;;;;;;15.10;2.88;;;14.60;99.90;;;;;;5037456;28;20071;-62